Time;durP1;ratioP1;P1;durP2;ratioP2;P2;SDS_P1;SDS_P2;PMS_P1;PMS_P2;Temp;Humidity;BMP_temperature;BMP_pressure;BME280_temperature;BME280_humidity;BME280_pressure;Samples;Min_cycle;Max_cycle;Signal;HPM_P1;HPM_P2
2022/08/28 00:02:03;;;;;;;1.17;0.70;;;15.60;99.90;;;;;;6163479;23;20023;-89
2022/08/28 00:04:30;;;;;;;0.95;0.63;;;15.60;99.90;;;;;;6164818;23;20047;-89
2022/08/28 00:06:57;;;;;;;0.55;0.55;;;15.50;99.90;;;;;;6165485;23;20016;-91
2022/08/28 00:09:24;;;;;;;1.42;0.90;;;15.50;99.90;;;;;;6166868;23;20478;-89
2022/08/28 00:11:52;;;;;;;0.50;0.40;;;15.50;99.90;;;;;;6166124;23;20435;-89
2022/08/28 00:14:19;;;;;;;0.60;0.50;;;15.40;99.90;;;;;;6167353;23;20050;-90
2022/08/28 00:16:47;;;;;;;1.15;0.68;;;15.40;99.90;;;;;;6166373;23;20083;-92
2022/08/28 00:19:15;;;;;;;0.73;0.45;;;15.40;99.90;;;;;;6166072;23;20067;-90
2022/08/28 00:21:43;;;;;;;0.60;0.50;;;15.30;99.90;;;;;;6166204;23;20027;-89
2022/08/28 00:24:10;;;;;;;0.82;0.60;;;15.30;99.90;;;;;;6168852;23;20459;-91
2022/08/28 00:29:25;;;;;;;0.88;0.52;;;15.30;99.90;;;;;;6198239;23;20016;-90
2022/08/28 00:31:54;;;;;;;0.73;0.50;;;15.20;99.90;;;;;;6165411;23;20027;-90
2022/08/28 00:34:21;;;;;;;0.90;0.57;;;15.20;99.90;;;;;;6166746;23;20020;-90
2022/08/28 00:36:59;;;;;;;0.75;0.47;;;15.20;99.90;;;;;;6172136;23;20043;-90
2022/08/28 00:39:26;;;;;;;1.27;0.70;;;15.10;99.90;;;;;;6164174;23;20020;-88
2022/08/28 00:41:54;;;;;;;0.88;0.47;;;15.10;99.90;;;;;;6189223;23;20028;-90
2022/08/28 00:44:24;;;;;;;0.60;0.50;;;15.00;99.90;;;;;;6166913;23;20291;-88
2022/08/28 00:46:52;;;;;;;2.10;0.70;;;15.10;99.90;;;;;;6187044;23;20099;-88
2022/08/28 00:49:25;;;;;;;0.98;0.68;;;15.00;99.90;;;;;;6165128;23;20023;-88
2022/08/28 00:52:04;;;;;;;1.03;0.60;;;15.00;99.90;;;;;;6165033;23;20085;-87
2022/08/28 00:54:35;;;;;;;1.33;0.80;;;15.00;99.90;;;;;;6170634;23;20020;-89
2022/08/28 00:57:04;;;;;;;0.50;0.47;;;15.00;99.90;;;;;;6166377;23;20063;-89
2022/08/28 00:59:32;;;;;;;0.73;0.52;;;15.00;99.90;;;;;;6166807;23;20024;-89
2022/08/28 01:01:59;;;;;;;0.40;0.40;;;14.90;99.90;;;;;;6165538;23;20043;-89
2022/08/28 01:04:29;;;;;;;1.08;0.60;;;14.80;99.90;;;;;;6166288;23;20769;-87
2022/08/28 01:06:57;;;;;;;0.73;0.55;;;14.80;99.90;;;;;;6165902;23;20620;-88
2022/08/28 01:09:26;;;;;;;1.30;0.70;;;14.80;99.90;;;;;;6166880;23;20035;-92
2022/08/28 01:11:55;;;;;;;1.40;0.70;;;14.70;99.90;;;;;;6165913;23;20027;-90
2022/08/28 01:14:22;;;;;;;0.95;0.70;;;14.80;99.90;;;;;;6167145;23;20016;-88
2022/08/28 01:16:54;;;;;;;0.80;0.60;;;14.70;99.90;;;;;;6167525;23;20023;-93
2022/08/28 01:19:45;;;;;;;1.27;0.60;;;14.70;99.90;;;;;;6170266;23;20058;-90
2022/08/28 01:22:27;;;;;;;0.40;0.40;;;14.70;99.90;;;;;;6192361;23;20016;-90
2022/08/28 01:24:58;;;;;;;1.35;0.73;;;14.60;99.90;;;;;;6192360;23;20024;-92
2022/08/28 01:27:25;;;;;;;0.90;0.60;;;14.60;99.90;;;;;;6167864;23;20251;-90
2022/08/28 01:29:52;;;;;;;1.02;0.68;;;14.60;99.90;;;;;;6177583;23;20023;-90
2022/08/28 01:32:46;;;;;;;0.60;0.52;;;14.50;99.90;;;;;;6124002;23;20026;-84
2022/08/28 01:35:31;;;;;;;0.68;0.60;;;14.50;99.90;;;;;;6121990;23;20029;-84
2022/08/28 01:38:02;;;;;;;1.05;0.60;;;14.40;99.90;;;;;;6116114;23;20300;-84
2022/08/28 01:40:45;;;;;;;0.73;0.60;;;14.30;99.90;;;;;;6155473;23;20036;-90
2022/08/28 01:43:18;;;;;;;0.95;0.60;;;14.40;99.90;;;;;;6096081;23;20022;-86
2022/08/28 01:45:54;;;;;;;0.90;0.50;;;14.30;99.90;;;;;;6143911;23;20030;-86
2022/08/28 01:48:30;;;;;;;1.05;0.70;;;14.40;99.90;;;;;;6133283;23;20041;-86
2022/08/28 01:51:28;;;;;;;0.85;0.60;;;14.40;99.90;;;;;;6171116;23;20028;-86
2022/08/28 01:54:31;;;;;;;0.40;0.40;;;14.40;99.90;;;;;;6183467;23;20029;-86
2022/08/28 01:57:16;;;;;;;0.70;0.60;;;14.40;99.90;;;;;;6133476;23;20025;-86
2022/08/28 02:00:03;;;;;;;0.93;0.63;;;14.30;99.90;;;;;;6201293;23;20040;-86
2022/08/28 02:02:50;;;;;;;0.57;0.50;;;14.30;99.90;;;;;;6162235;23;20021;-86
2022/08/28 02:05:33;;;;;;;0.38;0.30;;;14.30;99.90;;;;;;6184357;23;20077;-86
2022/08/28 02:08:26;;;;;;;0.43;0.40;;;14.20;99.90;;;;;;6170336;23;20040;-86
2022/08/28 02:11:44;;;;;;;0.57;0.50;;;14.20;99.90;;;;;;6146452;23;20030;-86
2022/08/28 02:14:37;;;;;;;0.88;0.60;;;14.20;99.90;;;;;;6166012;23;20528;-86
2022/08/28 02:17:22;;;;;;;0.50;0.40;;;14.10;99.90;;;;;;6152099;23;20025;-86
2022/08/28 02:19:53;;;;;;;0.57;0.43;;;14.10;99.90;;;;;;6169370;23;20092;-86
2022/08/28 02:22:21;;;;;;;0.38;0.30;;;14.10;99.90;;;;;;6170668;23;20065;-86
2022/08/28 02:24:52;;;;;;;0.82;0.70;;;14.10;99.90;;;;;;6147652;23;20018;-86
2022/08/28 02:27:25;;;;;;;0.82;0.55;;;14.10;99.90;;;;;;6170036;23;20053;-85
2022/08/28 02:30:14;;;;;;;0.90;0.60;;;14.10;99.90;;;;;;6148704;23;20091;-86
2022/08/28 02:32:52;;;;;;;0.73;0.43;;;14.00;99.90;;;;;;6172003;23;20088;-86
2022/08/28 02:35:32;;;;;;;1.10;0.60;;;14.00;99.90;;;;;;6175702;23;20018;-86
2022/08/28 02:38:06;;;;;;;0.75;0.50;;;13.90;99.90;;;;;;6123121;23;20028;-86
2022/08/28 02:40:35;;;;;;;0.50;0.50;;;13.90;99.90;;;;;;6171782;23;20061;-86
2022/08/28 02:43:17;;;;;;;0.43;0.43;;;13.80;99.90;;;;;;6167114;23;20064;-86
2022/08/28 02:46:03;;;;;;;0.88;0.52;;;13.80;99.90;;;;;;6148457;23;20033;-86
2022/08/28 02:48:39;;;;;;;0.65;0.47;;;13.80;99.90;;;;;;6182676;23;20047;-86
2022/08/28 02:51:12;;;;;;;0.88;0.60;;;13.80;99.90;;;;;;6183833;23;20016;-86
2022/08/28 02:53:55;;;;;;;0.68;0.60;;;13.70;99.90;;;;;;6208891;23;20048;-87
2022/08/28 02:56:44;;;;;;;0.70;0.50;;;13.70;99.90;;;;;;6189455;23;20029;-86
2022/08/28 02:59:24;;;;;;;1.15;0.50;;;13.70;99.90;;;;;;6162449;23;20068;-85
2022/08/28 03:02:18;;;;;;;0.93;0.65;;;13.70;99.90;;;;;;6206526;23;20047;-86
2022/08/28 03:05:35;;;;;;;1.00;0.55;;;13.70;99.90;;;;;;6190424;23;20072;-85
2022/08/28 03:08:20;;;;;;;0.80;0.60;;;13.70;99.90;;;;;;6233670;23;20035;-86
2022/08/28 03:11:33;;;;;;;0.80;0.57;;;13.70;99.90;;;;;;6224791;23;20041;-86
2022/08/28 03:14:07;;;;;;;1.05;0.70;;;13.70;99.90;;;;;;6077547;23;20060;-86
2022/08/28 03:16:54;;;;;;;0.73;0.55;;;13.70;99.90;;;;;;6127984;23;20077;-86
2022/08/28 03:19:55;;;;;;;1.00;0.52;;;13.60;99.90;;;;;;6130172;23;20022;-86
2022/08/28 04:47:40;;;;;;;0.50;0.40;;;14.10;99.90;;;;;;6157956;23;20031;-86
2022/08/28 04:50:36;;;;;;;0.60;0.60;;;14.10;99.90;;;;;;6175406;23;20021;-86
2022/08/28 04:53:06;;;;;;;0.40;0.40;;;14.00;99.90;;;;;;6168893;23;20020;-86
2022/08/28 04:55:59;;;;;;;0.70;0.45;;;14.00;99.90;;;;;;6176148;23;20013;-87
2022/08/28 04:59:04;;;;;;;0.50;0.40;;;13.90;99.90;;;;;;6195570;23;20009;-86
2022/08/28 05:01:40;;;;;;;0.63;0.43;;;13.90;99.90;;;;;;6177654;23;20009;-86
2022/08/28 05:04:23;;;;;;;0.68;0.50;;;13.90;99.90;;;;;;6149272;23;20082;-86
2022/08/28 05:17:48;;;;;;;2.38;0.63;;;13.80;99.90;;;;;;6145432;23;20075;-86
2022/08/28 05:20:44;;;;;;;0.50;0.40;;;13.80;99.90;;;;;;6120468;23;20053;-86
2022/08/28 05:23:14;;;;;;;0.65;0.40;;;13.80;99.90;;;;;;6119284;23;20037;-86
2022/08/28 05:26:17;;;;;;;0.40;0.40;;;13.80;99.90;;;;;;6144745;23;20057;-85
2022/08/28 05:29:21;;;;;;;0.70;0.40;;;13.80;99.90;;;;;;6082876;23;20045;-86
2022/08/28 05:31:51;;;;;;;0.30;0.30;;;13.80;99.90;;;;;;6119905;23;20045;-86
2022/08/28 05:34:30;;;;;;;0.20;0.20;;;13.80;99.90;;;;;;6091135;23;20040;-87
2022/08/28 05:37:01;;;;;;;0.40;0.30;;;13.80;99.90;;;;;;6115712;23;20037;-86
2022/08/28 05:39:42;;;;;;;0.63;0.30;;;13.80;99.90;;;;;;6095731;23;20018;-86
2022/08/28 06:02:34;;;;;;;0.43;0.30;;;13.90;99.90;;;;;;6130144;23;20607;-77
2022/08/28 06:05:02;;;;;;;0.70;0.43;;;14.00;99.90;;;;;;6120464;23;20068;-76
2022/08/28 06:07:28;;;;;;;0.45;0.40;;;14.00;99.90;;;;;;6143562;23;20076;-76
2022/08/28 06:09:56;;;;;;;0.68;0.40;;;14.10;99.90;;;;;;6120572;23;20022;-74
2022/08/28 06:12:23;;;;;;;0.38;0.30;;;14.20;99.90;;;;;;6118268;23;20385;-74
2022/08/28 06:14:50;;;;;;;0.55;0.43;;;14.20;99.90;;;;;;6096559;23;20030;-74
2022/08/28 06:17:16;;;;;;;0.70;0.50;;;14.30;99.90;;;;;;6143153;23;20025;-74
2022/08/28 06:19:49;;;;;;;0.65;0.45;;;14.40;99.90;;;;;;6120598;23;20080;-74
2022/08/28 06:22:17;;;;;;;0.50;0.50;;;14.40;99.90;;;;;;6145455;23;20061;-74
2022/08/28 06:24:43;;;;;;;0.57;0.55;;;14.50;99.90;;;;;;6095986;23;20022;-75
2022/08/28 06:27:10;;;;;;;0.80;0.52;;;14.60;99.90;;;;;;6094170;23;20025;-76
2022/08/28 06:29:38;;;;;;;0.40;0.30;;;14.70;99.90;;;;;;6094720;23;20392;-76
2022/08/28 06:32:05;;;;;;;0.70;0.50;;;14.80;99.90;;;;;;6118641;23;20337;-76
2022/08/28 06:34:32;;;;;;;0.63;0.60;;;14.80;99.90;;;;;;6120419;23;20388;-75
2022/08/28 06:36:59;;;;;;;0.88;0.60;;;15.00;99.90;;;;;;6144953;23;20087;-76
2022/08/28 06:39:26;;;;;;;0.38;0.32;;;15.00;99.90;;;;;;6094922;23;20018;-76
2022/08/28 06:41:53;;;;;;;0.50;0.47;;;15.10;99.90;;;;;;6119276;23;20068;-75
2022/08/28 06:44:20;;;;;;;0.65;0.55;;;15.20;99.90;;;;;;6095447;23;20433;-76
2022/08/28 06:46:48;;;;;;;0.73;0.43;;;15.30;99.90;;;;;;6146192;23;20029;-76
2022/08/28 06:49:15;;;;;;;0.65;0.40;;;15.40;99.90;;;;;;6094254;23;20476;-75
2022/08/28 06:51:42;;;;;;;0.45;0.43;;;15.60;99.90;;;;;;6119385;23;20025;-76
2022/08/28 06:54:09;;;;;;;0.38;0.30;;;15.60;99.90;;;;;;6118720;23;20048;-75
2022/08/28 06:56:37;;;;;;;0.88;0.47;;;15.80;99.90;;;;;;6143521;23;20052;-77
2022/08/28 06:59:04;;;;;;;0.40;0.30;;;15.90;99.90;;;;;;6114170;23;20020;-77
2022/08/28 07:01:33;;;;;;;0.70;0.50;;;16.00;99.90;;;;;;6115174;23;20671;-75
2022/08/28 07:04:03;;;;;;;0.90;0.40;;;16.10;99.90;;;;;;6113000;23;20026;-74
2022/08/28 07:06:31;;;;;;;0.47;0.47;;;16.20;99.90;;;;;;6141085;23;20036;-75
2022/08/28 07:08:58;;;;;;;0.73;0.60;;;16.30;99.90;;;;;;6116811;23;20022;-74
2022/08/28 07:11:27;;;;;;;0.85;0.60;;;16.30;99.90;;;;;;6090904;23;20564;-74
2022/08/28 07:13:54;;;;;;;1.67;0.82;;;16.30;99.90;;;;;;6141114;23;20022;-74
2022/08/28 07:16:23;;;;;;;1.10;0.50;;;16.40;99.90;;;;;;6114662;23;20092;-75
2022/08/28 07:18:50;;;;;;;0.40;0.40;;;16.50;99.90;;;;;;6139772;23;20030;-74
2022/08/28 07:21:17;;;;;;;1.08;0.50;;;16.50;99.90;;;;;;6139436;23;20033;-75
2022/08/28 07:23:45;;;;;;;0.40;0.30;;;16.50;99.90;;;;;;6113809;23;20450;-74
2022/08/28 07:26:14;;;;;;;0.38;0.38;;;16.60;99.90;;;;;;6140017;23;20036;-75
2022/08/28 07:28:41;;;;;;;0.50;0.28;;;16.60;99.90;;;;;;6140505;23;20166;-75
2022/08/28 07:31:13;;;;;;;0.50;0.38;;;16.70;99.90;;;;;;6138722;23;20382;-75
2022/08/28 07:33:40;;;;;;;0.75;0.30;;;16.70;99.90;;;;;;6141090;23;20125;-75
2022/08/28 07:36:13;;;;;;;0.40;0.20;;;16.80;99.90;;;;;;6091237;23;20029;-74
2022/08/28 07:38:44;;;;;;;0.32;0.20;;;16.80;99.90;;;;;;6141554;23;20033;-75
2022/08/28 07:41:13;;;;;;;0.30;0.30;;;16.90;99.90;;;;;;6090869;23;20341;-76
2022/08/28 07:46:25;;;;;;;0.40;0.28;;;16.90;99.90;;;;;;6139801;23;20029;-74
2022/08/28 07:48:52;;;;;;;0.70;0.40;;;17.00;99.90;;;;;;6139286;23;20104;-74
2022/08/28 07:51:19;;;;;;;0.22;0.20;;;16.90;99.90;;;;;;6140421;23;20755;-75
2022/08/28 07:53:46;;;;;;;0.85;0.32;;;17.00;99.90;;;;;;6141364;23;20771;-75
2022/08/28 07:56:13;;;;;;;0.22;0.22;;;17.00;99.90;;;;;;6139686;23;20080;-75
2022/08/28 07:58:40;;;;;;;0.43;0.30;;;17.10;99.90;;;;;;6090407;23;20030;-75
2022/08/28 08:01:06;;;;;;;0.50;0.40;;;17.10;99.90;;;;;;6140736;23;20065;-75
2022/08/28 08:03:33;;;;;;;0.50;0.40;;;17.10;99.90;;;;;;6141353;23;20029;-76
2022/08/28 08:06:02;;;;;;;0.22;0.20;;;17.20;99.90;;;;;;6090595;23;20057;-75
2022/08/28 08:08:30;;;;;;;1.45;0.68;;;17.20;99.90;;;;;;6114957;23;20454;-76
2022/08/28 08:11:02;;;;;;;0.30;0.30;;;17.30;99.90;;;;;;6138939;23;20025;-76
2022/08/28 08:13:32;;;;;;;0.50;0.40;;;17.40;99.90;;;;;;6115582;23;20028;-75
2022/08/28 08:16:01;;;;;;;0.45;0.30;;;17.50;99.90;;;;;;6113925;23;20555;-75
2022/08/28 08:18:29;;;;;;;0.38;0.28;;;17.60;99.90;;;;;;6115741;23;20053;-74
2022/08/28 08:20:56;;;;;;;0.38;0.30;;;17.60;99.90;;;;;;6114692;23;20049;-76
2022/08/28 08:23:23;;;;;;;0.70;0.47;;;17.80;99.90;;;;;;6140997;23;20065;-74
2022/08/28 08:25:56;;;;;;;1.17;0.60;;;17.90;99.90;;;;;;6139345;23;20028;-73
2022/08/28 08:28:24;;;;;;;0.63;0.52;;;17.90;99.90;;;;;;6113558;23;20025;-75
2022/08/28 08:31:20;;;;;;;0.52;0.47;;;18.10;99.90;;;;;;6114948;23;20029;-75
2022/08/28 08:33:49;;;;;;;0.50;0.40;;;18.20;99.90;;;;;;6094913;23;20068;-76
2022/08/28 08:36:18;;;;;;;0.50;0.50;;;18.30;99.90;;;;;;6140811;23;20057;-75
2022/08/28 08:38:45;;;;;;;0.57;0.50;;;18.50;99.90;;;;;;6114601;23;20029;-76
2022/08/28 08:41:20;;;;;;;0.65;0.50;;;18.60;99.90;;;;;;6090187;23;20021;-75
2022/08/28 08:43:59;;;;;;;1.15;0.47;;;18.70;99.90;;;;;;6140998;23;20100;-75
2022/08/28 08:46:34;;;;;;;0.55;0.40;;;18.90;99.90;;;;;;6114830;23;20033;-76
2022/08/28 08:49:04;;;;;;;0.90;0.50;;;18.90;99.90;;;;;;6091842;23;20025;-75
2022/08/28 08:51:42;;;;;;;0.60;0.60;;;19.00;99.90;;;;;;6114173;23;20040;-76
2022/08/28 08:54:12;;;;;;;1.17;0.50;;;19.10;99.90;;;;;;6116119;23;20058;-75
2022/08/28 08:56:39;;;;;;;0.65;0.40;;;19.20;99.90;;;;;;6113698;23;20121;-76
2022/08/28 08:59:09;;;;;;;0.45;0.35;;;19.30;99.90;;;;;;6090859;23;20021;-76
2022/08/28 09:01:41;;;;;;;1.13;0.50;;;19.40;99.90;;;;;;6115599;23;20025;-76
2022/08/28 09:04:41;;;;;;;0.60;0.38;;;19.50;99.90;;;;;;6091216;23;20033;-74
2022/08/28 09:07:46;;;;;;;0.47;0.40;;;19.60;99.90;;;;;;6114451;23;20484;-75
2022/08/28 09:10:19;;;;;;;0.70;0.30;;;19.80;99.90;;;;;;6140616;23;20542;-75
2022/08/28 09:12:54;;;;;;;1.23;0.60;;;20.00;99.90;;;;;;6138540;23;20026;-75
2022/08/28 09:15:35;;;;;;;0.95;0.60;;;20.10;99.90;;;;;;6089775;23;20654;-76
2022/08/28 09:18:17;;;;;;;2.25;0.57;;;20.20;99.90;;;;;;6115211;23;20032;-76
2022/08/28 09:20:48;;;;;;;0.93;0.40;;;20.30;99.90;;;;;;6111924;23;20021;-77
2022/08/28 09:23:15;;;;;;;0.93;0.77;;;20.20;99.90;;;;;;6090687;23;20084;-75
2022/08/28 09:25:58;;;;;;;0.98;0.65;;;20.20;99.90;;;;;;6089263;23;20034;-76
2022/08/28 09:28:33;;;;;;;0.85;0.43;;;20.30;99.90;;;;;;6137387;23;20100;-76
2022/08/28 09:31:30;;;;;;;0.75;0.50;;;20.40;99.90;;;;;;6118061;23;20076;-76
2022/08/28 09:34:24;;;;;;;1.55;0.70;;;20.50;99.90;;;;;;6118988;23;20059;-75
2022/08/28 09:36:51;;;;;;;1.08;0.50;;;20.60;99.90;;;;;;6122483;23;20029;-75
2022/08/28 09:39:28;;;;;;;1.27;0.68;;;20.50;99.90;;;;;;6095496;23;20021;-74
2022/08/28 09:45:12;;;;;;;1.17;0.70;;;20.70;99.90;;;;;;6146054;23;20026;-75
2022/08/28 09:47:56;;;;;;;0.82;0.63;;;20.80;99.90;;;;;;6118424;23;20084;-77
2022/08/28 09:50:30;;;;;;;1.55;0.73;;;20.90;99.90;;;;;;6095965;23;20052;-77
2022/08/28 09:53:07;;;;;;;0.70;0.57;;;20.90;99.90;;;;;;6122598;23;20028;-76
2022/08/28 09:55:54;;;;;;;0.57;0.40;;;21.00;99.90;;;;;;6148864;23;20100;-76
2022/08/28 09:58:30;;;;;;;0.32;0.30;;;21.20;99.90;;;;;;6124223;23;20068;-75
2022/08/28 10:01:12;;;;;;;0.40;0.40;;;21.30;99.90;;;;;;6102041;23;20022;-76
2022/08/28 10:04:05;;;;;;;0.73;0.40;;;21.50;99.90;;;;;;6123924;23;20076;-76
2022/08/28 10:06:34;;;;;;;0.43;0.40;;;21.70;99.90;;;;;;6124906;23;20437;-76
2022/08/28 10:09:13;;;;;;;0.73;0.32;;;21.80;99.90;;;;;;6076441;23;20025;-75
2022/08/28 10:11:43;;;;;;;0.60;0.30;;;21.90;99.90;;;;;;6149249;23;20062;-77
2022/08/28 10:14:10;;;;;;;0.75;0.57;;;22.00;99.90;;;;;;6123160;23;20081;-75
2022/08/28 10:16:43;;;;;;;0.32;0.32;;;22.00;99.90;;;;;;6148909;23;20101;-78
2022/08/28 10:19:48;;;;;;;0.32;0.32;;;22.20;99.90;;;;;;6123567;23;20266;-76
2022/08/28 10:22:18;;;;;;;0.40;0.40;;;22.30;99.90;;;;;;6145584;23;20032;-76
2022/08/28 10:24:54;;;;;;;0.88;0.50;;;22.30;99.90;;;;;;6150242;23;20021;-76
2022/08/28 10:27:30;;;;;;;0.35;0.30;;;22.30;99.90;;;;;;6121037;23;20384;-75
2022/08/28 10:30:08;;;;;;;1.02;0.60;;;22.50;99.90;;;;;;6119913;23;20017;-74
2022/08/28 10:32:44;;;;;;;0.63;0.47;;;22.40;99.90;;;;;;6119752;23;20029;-74
2022/08/28 10:35:19;;;;;;;1.52;0.77;;;22.50;99.90;;;;;;6144595;23;20072;-76
2022/08/28 10:38:27;;;;;;;0.55;0.40;;;22.80;99.90;;;;;;6116851;23;20021;-75
2022/08/28 10:41:16;;;;;;;1.30;0.60;;;22.90;99.90;;;;;;6123826;23;20579;-76
2022/08/28 10:43:51;;;;;;;0.98;0.57;;;23.00;99.90;;;;;;6144286;23;20033;-75
2022/08/28 10:46:25;;;;;;;0.98;0.70;;;23.30;99.90;;;;;;6094364;23;20017;-74
2022/08/28 10:49:10;;;;;;;1.38;0.80;;;23.40;99.90;;;;;;6096177;23;20455;-75
2022/08/28 10:51:40;;;;;;;0.77;0.65;;;23.50;99.90;;;;;;6096829;23;20714;-76
2022/08/28 10:54:22;;;;;;;1.00;0.65;;;23.60;99.90;;;;;;6096513;23;20021;-75
2022/08/28 10:57:13;;;;;;;1.25;0.43;;;23.80;99.90;;;;;;6093929;23;20678;-73
2022/08/28 10:59:40;;;;;;;1.20;0.68;;;23.70;99.90;;;;;;6117855;23;20029;-73
2022/08/28 11:02:08;;;;;;;1.40;0.73;;;23.70;99.90;;;;;;6143857;23;20022;-73
2022/08/28 11:04:35;;;;;;;0.63;0.50;;;23.70;99.90;;;;;;6095202;23;20022;-75
2022/08/28 11:07:04;;;;;;;1.60;0.80;;;23.60;99.90;;;;;;6117845;23;20056;-74
2022/08/28 11:09:40;;;;;;;0.40;0.40;;;23.70;99.90;;;;;;6118247;23;20045;-74
2022/08/28 11:12:28;;;;;;;0.82;0.50;;;23.70;99.90;;;;;;6117454;23;20472;-74
2022/08/28 11:14:54;;;;;;;0.40;0.40;;;23.70;99.90;;;;;;6101846;23;20025;-74
2022/08/28 11:17:26;;;;;;;0.60;0.50;;;23.90;99.90;;;;;;6142466;23;20064;-74
2022/08/28 11:20:02;;;;;;;0.50;0.40;;;24.00;99.90;;;;;;6144770;23;20025;-75
2022/08/28 11:22:37;;;;;;;0.93;0.30;;;24.10;99.90;;;;;;6143989;23;20412;-74
2022/08/28 11:25:22;;;;;;;0.70;0.45;;;24.40;99.90;;;;;;6096724;23;20105;-75
2022/08/28 11:28:17;;;;;;;1.23;0.60;;;24.80;99.90;;;;;;6096668;23;20044;-74
2022/08/28 11:30:46;;;;;;;0.75;0.43;;;24.70;99.90;;;;;;6118927;23;20539;-76
2022/08/28 11:33:38;;;;;;;0.40;0.40;;;24.60;99.60;;;;;;6094572;23;20018;-74
2022/08/28 11:36:12;;;;;;;1.52;0.60;;;24.80;99.90;;;;;;6144471;23;20017;-76
2022/08/28 11:38:40;;;;;;;0.68;0.40;;;24.80;99.90;;;;;;6094951;23;20273;-76
2022/08/28 11:41:13;;;;;;;0.63;0.60;;;25.10;99.30;;;;;;6143844;23;20029;-75
2022/08/28 11:43:44;;;;;;;1.40;0.45;;;25.30;99.50;;;;;;6093996;23;20029;-74
2022/08/28 11:46:10;;;;;;;0.75;0.40;;;25.60;98.20;;;;;;6070045;23;20449;-76
2022/08/28 11:48:42;;;;;;;0.43;0.35;;;25.70;97.50;;;;;;6144248;23;20053;-75
2022/08/28 11:51:25;;;;;;;1.00;0.60;;;25.90;97.50;;;;;;6139457;23;20025;-75
2022/08/28 11:54:22;;;;;;;1.10;0.70;;;26.10;97.10;;;;;;6144388;23;20029;-75
2022/08/28 11:57:30;;;;;;;0.55;0.50;;;26.40;97.20;;;;;;6114402;23;20026;-74
2022/08/28 12:00:09;;;;;;;1.58;0.90;;;26.70;96.60;;;;;;6082247;23;20033;-76
2022/08/28 12:02:39;;;;;;;1.50;0.50;;;26.60;96.10;;;;;;6081143;23;20620;-75
2022/08/28 12:05:15;;;;;;;0.40;0.40;;;26.90;95.80;;;;;;6101878;23;20022;-77
2022/08/28 12:07:43;;;;;;;0.85;0.60;;;27.30;95.90;;;;;;6114902;23;20061;-75
2022/08/28 12:10:26;;;;;;;0.95;0.60;;;27.70;94.60;;;;;;6089210;23;20025;-75
2022/08/28 12:13:00;;;;;;;0.75;0.40;;;27.60;95.20;;;;;;6111232;23;20125;-75
2022/08/28 12:15:27;;;;;;;0.55;0.43;;;27.80;94.40;;;;;;6088635;23;20060;-75
2022/08/28 12:17:56;;;;;;;0.40;0.40;;;28.30;93.40;;;;;;6113686;23;20030;-75
2022/08/28 12:20:28;;;;;;;0.52;0.43;;;28.40;93.10;;;;;;6087981;23;20049;-75
2022/08/28 12:22:58;;;;;;;0.95;0.60;;;28.50;93.00;;;;;;6112814;23;20026;-76
2022/08/28 12:25:39;;;;;;;0.60;0.50;;;28.40;92.80;;;;;;6088854;23;20462;-77
2022/08/28 12:28:18;;;;;;;0.77;0.50;;;28.40;92.50;;;;;;6113400;23;20026;-75
2022/08/28 12:31:00;;;;;;;0.80;0.40;;;28.30;92.10;;;;;;6112202;23;20049;-76
2022/08/28 12:33:45;;;;;;;0.98;0.45;;;28.70;91.80;;;;;;6111799;23;20032;-76
2022/08/28 12:36:15;;;;;;;0.35;0.30;;;28.90;91.40;;;;;;6115656;23;20081;-75
2022/08/28 12:38:47;;;;;;;0.95;0.40;;;28.80;91.30;;;;;;6088664;23;20025;-75
2022/08/28 12:41:15;;;;;;;;;;;28.80;90.70;;;;;;6089742;23;20421;-77
2022/08/28 12:43:44;;;;;;;0.85;0.30;;;28.80;90.60;;;;;;6135876;23;19927;-76
2022/08/28 12:46:27;;;;;;;0.35;0.30;;;28.90;89.00;;;;;;6089334;23;20026;-75
2022/08/28 12:48:59;;;;;;;1.00;0.45;;;28.90;88.60;;;;;;6087177;23;20028;-76
2022/08/28 12:51:27;;;;;;;0.82;0.50;;;28.80;89.00;;;;;;6111722;23;20608;-74
2022/08/28 12:53:59;;;;;;;0.73;0.40;;;28.70;90.10;;;;;;6113144;23;20026;-74
2022/08/28 12:56:28;;;;;;;0.50;0.50;;;28.70;88.80;;;;;;6114346;23;20018;-76
2022/08/28 12:58:55;;;;;;;0.80;0.63;;;28.70;89.40;;;;;;6114108;23;20373;-75
2022/08/28 13:01:30;;;;;;;0.28;0.28;;;28.80;89.80;;;;;;6106675;23;20092;-76
2022/08/28 13:03:58;;;;;;;0.40;0.40;;;29.00;89.90;;;;;;6112050;23;20036;-74
2022/08/28 13:06:27;;;;;;;0.43;0.43;;;29.30;88.80;;;;;;6112417;23;20058;-75
2022/08/28 13:09:04;;;;;;;0.63;0.50;;;29.30;88.40;;;;;;6089757;23;20077;-77
2022/08/28 13:11:34;;;;;;;0.35;0.35;;;29.40;86.40;;;;;;6115042;23;20053;-76
2022/08/28 13:14:01;;;;;;;0.45;0.45;;;29.50;86.90;;;;;;6091336;23;20014;-77
2022/08/28 13:16:34;;;;;;;0.40;0.35;;;29.30;87.70;;;;;;6090647;23;20529;-76
2022/08/28 13:19:04;;;;;;;0.40;0.40;;;28.90;88.50;;;;;;6115944;23;20053;-77
2022/08/28 13:21:59;;;;;;;1.00;0.57;;;29.00;88.20;;;;;;6116098;23;20026;-77
2022/08/28 13:24:27;;;;;;;1.50;0.90;;;28.90;88.40;;;;;;6114929;23;20026;-76
2022/08/28 13:27:10;;;;;;;0.68;0.68;;;29.10;88.80;;;;;;6114467;23;20022;-76
2022/08/28 13:30:18;;;;;;;1.58;1.10;;;29.20;88.30;;;;;;6115834;23;20026;-76
2022/08/28 13:32:57;;;;;;;1.13;0.90;;;29.70;87.70;;;;;;6115711;23;20397;-77
2022/08/28 13:35:23;;;;;;;0.82;0.68;;;30.30;86.30;;;;;;6114680;23;20026;-77
2022/08/28 13:38:11;;;;;;;1.10;0.80;;;30.50;86.50;;;;;;6116498;23;20911;-76
2022/08/28 13:40:44;;;;;;;0.30;0.30;;;30.40;85.00;;;;;;6140451;23;20317;-77
2022/08/28 13:43:26;;;;;;;1.05;0.63;;;30.50;85.50;;;;;;6094165;23;20057;-76
2022/08/28 13:45:53;;;;;;;0.40;0.40;;;30.70;85.70;;;;;;6114188;23;20026;-76
2022/08/28 13:48:21;;;;;;;0.40;0.40;;;31.00;83.40;;;;;;6112667;23;20053;-77
2022/08/28 13:50:51;;;;;;;0.63;0.50;;;31.40;83.30;;;;;;6113280;23;20049;-77
2022/08/28 13:53:19;;;;;;;0.40;0.40;;;31.80;83.00;;;;;;6090269;23;20029;-76
2022/08/28 13:55:47;;;;;;;0.93;0.70;;;31.90;82.70;;;;;;6113250;23;20493;-76
2022/08/28 13:58:14;;;;;;;0.75;0.70;;;32.00;82.10;;;;;;6112416;23;20030;-76
2022/08/28 14:00:44;;;;;;;0.30;0.30;;;31.60;82.00;;;;;;6114569;23;20528;-75
2022/08/28 14:05:56;;;;;;;0.52;0.50;;;31.00;82.70;;;;;;6114527;23;20081;-75
2022/08/28 14:08:23;;;;;;;0.75;0.47;;;30.90;83.10;;;;;;6113467;23;20596;-76
2022/08/28 14:10:49;;;;;;;0.35;0.30;;;30.70;83.20;;;;;;6114362;23;20489;-76
2022/08/28 14:13:17;;;;;;;0.80;0.35;;;30.70;83.10;;;;;;6112640;23;20109;-76
2022/08/28 14:15:44;;;;;;;0.38;0.38;;;30.50;83.40;;;;;;6113377;23;20026;-76
2022/08/28 14:18:11;;;;;;;0.40;0.40;;;30.90;83.40;;;;;;6114470;23;20080;-76
2022/08/28 14:20:38;;;;;;;0.50;0.40;;;31.40;82.50;;;;;;6113128;23;20583;-75
2022/08/28 14:23:04;;;;;;;0.50;0.50;;;31.60;81.80;;;;;;6087985;23;20349;-75
2022/08/28 14:25:31;;;;;;;0.40;0.40;;;32.00;81.60;;;;;;6114589;23;20053;-76
2022/08/28 14:28:04;;;;;;;0.50;0.50;;;32.40;79.30;;;;;;6114746;23;20050;-75
2022/08/28 14:30:31;;;;;;;0.73;0.40;;;32.70;79.30;;;;;;6115006;23;20025;-76
2022/08/28 14:32:58;;;;;;;1.35;1.02;;;32.90;78.90;;;;;;6116539;23;20367;-76
2022/08/28 14:35:25;;;;;;;1.25;0.80;;;33.20;77.80;;;;;;6114922;23;20462;-76
2022/08/28 14:37:52;;;;;;;1.23;0.82;;;33.50;77.70;;;;;;6115477;23;20402;-75
2022/08/28 14:40:19;;;;;;;0.47;0.43;;;33.60;77.00;;;;;;6114722;23;20080;-76
2022/08/28 14:42:46;;;;;;;0.50;0.50;;;33.30;76.90;;;;;;6116298;23;20108;-76
2022/08/28 14:45:13;;;;;;;0.32;0.32;;;32.80;76.30;;;;;;6115682;23;20053;-76
2022/08/28 14:47:40;;;;;;;0.22;0.22;;;33.00;77.10;;;;;;6113872;23;20045;-75
2022/08/28 14:50:07;;;;;;;0.35;0.30;;;32.70;76.90;;;;;;6117338;23;20077;-76
2022/08/28 14:52:34;;;;;;;0.30;0.30;;;32.60;76.90;;;;;;6090720;23;20473;-76
2022/08/28 14:55:01;;;;;;;0.50;0.50;;;33.00;75.80;;;;;;6117066;23;20088;-75
2022/08/28 14:57:28;;;;;;;0.30;0.30;;;33.00;76.10;;;;;;6089158;23;20358;-76
2022/08/28 14:59:54;;;;;;;0.30;0.30;;;33.50;75.50;;;;;;6116141;23;20026;-75
2022/08/28 15:02:21;;;;;;;0.32;0.32;;;33.30;74.20;;;;;;6118231;23;20026;-75
2022/08/28 15:04:48;;;;;;;0.30;0.30;;;33.40;73.30;;;;;;6145995;23;20319;-76
2022/08/28 15:07:15;;;;;;;0.57;0.30;;;33.80;73.20;;;;;;6144799;23;20409;-75
2022/08/28 15:09:42;;;;;;;0.40;0.30;;;34.00;72.60;;;;;;6145789;23;20096;-75
2022/08/28 15:12:09;;;;;;;0.20;0.20;;;33.60;72.90;;;;;;6145264;23;20492;-74
2022/08/28 15:14:36;;;;;;;0.20;0.20;;;33.20;73.20;;;;;;6120495;23;20546;-75
2022/08/28 15:17:02;;;;;;;0.30;0.30;;;32.70;73.90;;;;;;6144274;23;20358;-75
2022/08/28 15:19:29;;;;;;;0.10;0.10;;;32.30;74.60;;;;;;6145781;23;20025;-75
2022/08/28 15:21:57;;;;;;;0.40;0.32;;;32.00;75.20;;;;;;6119427;23;20080;-75
2022/08/28 15:24:29;;;;;;;0.65;0.40;;;31.90;75.40;;;;;;6145182;23;20480;-75
2022/08/28 15:26:58;;;;;;;0.47;0.30;;;31.50;75.20;;;;;;6143237;23;20112;-75
2022/08/28 15:29:28;;;;;;;0.60;0.30;;;31.20;76.00;;;;;;6119146;23;20025;-75
2022/08/28 15:31:55;;;;;;;0.20;0.20;;;31.00;76.10;;;;;;6117012;23;20449;-76
2022/08/28 15:34:24;;;;;;;0.35;0.30;;;30.80;76.30;;;;;;6094141;23;20154;-76